Edward Cornwallis — CGJV — position and weather

sailwx.info

Track history (hours):
 
Tides and Currents Weather Stations Pressure Air Temp Water Temp Dewpoint Dewpoint Depression Visibility Wind Speed Wind Dir Waves Ship Positions

Edward Cornwallis

Last reported at 2017-Nov-23 23:00 UTC. Time now 2017-Nov-24 00:18 UTC.
Position N 53°18' W 060°24'.

Length 83 m; draft 6 m.

Type: SAR. MMSI: 316020000.

Wind from 310 at 7 knots

Barometer 994.9 mb
Air temperature -2.1 ° C
Dewpoint -2.4 ° C

Date/timePositionNaut miles runAvg speedWind from/ knotsBaromVisibWave heightAir tempDewpointWater temp
2017-Nov-23 23:00N 53°18' W 060°24'0 0.0 310 / 7994.9 -2.1-2.4
2017-Nov-23 22:00N 53°18' W 060°24'0 0.0
2017-Nov-23 21:00N 53°18' W 060°24'0 0.0 330 / 9994.8 -0.7-0.9
2017-Nov-23 20:00N 53°18' W 060°24'0 0.0 350 / 10995.3 -0.3-0.5
2017-Nov-23 19:00N 53°18' W 060°24'0 0.0 340 / 6995.5 -0.0-0.1
2017-Nov-23 18:00N 53°18' W 060°24'0 0.0 030 / 7995.9 -0.0-0.1
2017-Nov-23 17:00N 53°18' W 060°24'0 0.0 050 / 8996.8 -0.0-0.2
2017-Nov-23 16:00N 53°18' W 060°24'0 0.0 070 / 7998.4 -0.1-0.3
2017-Nov-23 15:00N 53°18' W 060°24'0 0.0 060 / 81000.3 -0.4-0.5
2017-Nov-23 14:00N 53°18' W 060°24'0 0.0 060 / 71001.7 -0.5-0.6
2017-Nov-23 13:00N 53°18' W 060°24'0 0.0 040 / 91003.4 -0.7-0.8
2017-Nov-23 12:00N 53°18' W 060°24'0 0.0 050 / 81004.1 -0.8-0.9
2017-Nov-23 11:00N 53°18' W 060°24'7 7.0 050 / 91005.1 -0.7-0.9
2017-Nov-23 10:00N 53°24' W 060°18'0 0.0 040 / 111005.9 -0.7-0.8
2017-Nov-23 09:00N 53°24' W 060°18'0 0.0 030 / 61007.5 -0.8-0.9
2017-Nov-23 08:00N 53°24' W 060°18'0 0.0 020 / 41008.5 -1.1-1.2
2017-Nov-23 07:00N 53°24' W 060°18'0 0.0 010 / 41009.8 -1.3-1.4
2017-Nov-23 06:00N 53°24' W 060°18'0 0.0 050 / 61010.9 -1.1-1.2
2017-Nov-23 05:00N 53°24' W 060°18'0 0.0 030 / 31011.7 -1.4-1.5
2017-Nov-23 04:00N 53°24' W 060°18'0 0.0 030 / 31012.9 -1.6-1.8
2017-Nov-23 03:00N 53°24' W 060°18'0 0.0 040 / 21013.5 -1.9-2.0
2017-Nov-23 02:00N 53°24' W 060°18'0 0.0 010 / 31014.3 -2.1-2.2
2017-Nov-23 01:00N 53°24' W 060°18'0 0.0 060 / 31015.4 -2.1-2.7
2017-Nov-23 00:00N 53°24' W 060°18'0 0.0 340 / 31015.8 -2.4-3.6
2017-Nov-22 23:00N 53°24' W 060°18'0 0.0 030 / 31015.9 -2.5-4.3
2017-Nov-22 22:00N 53°24' W 060°18'0 0.0 030 / 31016.1 -2.7-4.8
2017-Nov-22 21:00N 53°24' W 060°18'0 0.0 010 / 31016.3 -3.0-5.0
2017-Nov-22 20:00N 53°24' W 060°18'0 0.0 280 / 11016.2 -2.9-5.2
2017-Nov-22 19:00N 53°24' W 060°18'0 0.0 240 / 31016.9 -3.0-5.8
2017-Nov-22 18:00N 53°24' W 060°18'0 0.0 240 / 41016.6 -3.8-6.6
2017-Nov-22 17:00N 53°24' W 060°18'0 0.0 270 / 21017.0 -4.4-7.6
2017-Nov-22 16:00N 53°24' W 060°18'0 0.0 270 / 31017.4 -5.1-8.1
2017-Nov-22 15:00N 53°24' W 060°18'0 0.0 220 / 51017.7 -5.6-8.7
2017-Nov-22 14:00N 53°24' W 060°18'0 0.0 270 / 31017.5 -7.2-9.6
2017-Nov-22 13:00N 53°24' W 060°18'0 0.0 300 / 31017.4 -7.7-9.3
2017-Nov-22 12:00N 53°24' W 060°18'0 0.0 250 / 41017.3 -9.5-10.3
2017-Nov-22 11:00N 53°24' W 060°18'0 0.0 020 / 21017.0 -8.7-9.5
2017-Nov-22 10:00N 53°24' W 060°18'0 0.0 230 / 31016.8 -9.7-11.2
2017-Nov-22 09:00N 53°24' W 060°18'0 0.0 180 / 51016.6 -9.6-11.8
2017-Nov-22 08:00N 53°24' W 060°18'0 0.0 200 / 61016.8 -10.0-11.3
2017-Nov-22 07:00N 53°24' W 060°18'0 0.0 180 / 81017.0 -10.3-11.4
2017-Nov-22 06:00N 53°24' W 060°18'0 0.0 190 / 81016.8 -9.2-11.0
2017-Nov-22 05:00N 53°24' W 060°18'0 0.0 170 / 61016.2 -8.8-10.1
2017-Nov-22 04:00N 53°24' W 060°18'0 0.0 220 / 61015.7 -7.9-9.7
2017-Nov-22 03:00N 53°24' W 060°18'0 0.0 230 / 71015.2 -7.4-10.0
2017-Nov-22 02:00N 53°24' W 060°18'0 0.0 260 / 71014.6 -6.8-10.2
2017-Nov-22 01:00N 53°24' W 060°18'0 0.0 250 / 121014.2 -5.9-9.5
2017-Nov-22 00:00N 53°24' W 060°18'0 0.0 230 / 91013.1 -5.6-9.1
2017-Nov-21 23:00N 53°24' W 060°18'0 0.0 230 / 121012.2 -5.4-9.1
2017-Nov-21 22:00N 53°24' W 060°18'0 0.0 240 / 121011.3 -5.1-8.6
2017-Nov-21 21:00N 53°24' W 060°18'0 0.0 230 / 131009.5 -4.6-8.3
2017-Nov-21 20:00N 53°24' W 060°18'0 0.0 240 / 101008.0 -3.8-7.9
2017-Nov-21 19:00N 53°24' W 060°18'0 0.0 260 / 121005.8 -3.0-8.0
2017-Nov-21 18:00N 53°24' W 060°18'0 0.0 260 / 151004.1 -2.9-7.8
2017-Nov-21 17:00N 53°24' W 060°18'0 0.0 250 / 131002.3 -3.1-6.9
2017-Nov-21 16:00N 53°24' W 060°18'0 0.0 240 / 171000.1 -3.5-7.0
2017-Nov-21 15:00N 53°24' W 060°18'0 0.0 250 / 18998.2 -3.5-5.9
2017-Nov-21 14:00N 53°24' W 060°18'0 0.0 240 / 16996.2 -2.7-5.4
2017-Nov-21 13:00N 53°24' W 060°18'0 0.0 240 / 19993.8 -2.5-4.7
2017-Nov-21 12:00N 53°24' W 060°18'7 7.2 230 / 16991.6 -1.8-4.1
2017-Nov-21 11:00N 53°24' W 060°06'0 0.0 230 / 21990.4 -1.5-3.1
2017-Nov-21 10:00N 53°24' W 060°06'0 0.0 230 / 18989.6 -1.1-2.2
2017-Nov-21 09:00N 53°24' W 060°06'0 0.0 230 / 17988.4 -1.0-2.0
2017-Nov-21 08:00N 53°24' W 060°06'0 0.0 230 / 18987.7 -0.9-1.1
2017-Nov-21 07:00N 53°24' W 060°06'0 0.0 230 / 17987.0 -0.4-0.5
2017-Nov-21 06:00N 53°24' W 060°06'0 0.0 220 / 14986.5 0.3 0.1
2017-Nov-21 05:00N 53°24' W 060°06'0 0.0 200 / 12986.1 0.7 0.5
2017-Nov-21 04:00N 53°24' W 060°06'0 0.0 210 / 11986.3 1.3 0.9
2017-Nov-21 03:00N 53°24' W 060°06'0 0.0 210 / 11986.6 2.6 1.1
2017-Nov-21 01:00N 53°24' W 060°06'0 0.0 210 / 9987.1 2.9 1.2
2017-Nov-21 00:00N 53°24' W 060°06'4 3.6 200 / 7987.4 2.9 1.4
2017-Nov-20 23:00N 53°24' W 060°12'9 9.3 190 / 14986.9 3.4 1.8
2017-Nov-20 22:00N 53°18' W 060°24'0 0.0 180 / 9987.4 3.0 2.0
2017-Nov-20 21:00N 53°18' W 060°24'0 0.0 170 / 5986.8 3.7 2.2
2017-Nov-20 20:00N 53°18' W 060°24'0 0.0 180 / 7986.3 4.5 3.5
2017-Nov-20 19:00N 53°18' W 060°24'0 0.0 180 / 6985.6 5.8 4.3
2017-Nov-20 18:00N 53°18' W 060°24'0 0.0 150 / 6985.0 5.9 5.4
2017-Nov-20 17:00N 53°18' W 060°24'0 0.0 140 / 8984.9 6.4 5.0
2017-Nov-20 16:00N 53°18' W 060°24'0 0.0 150 / 10985.1 6.0 5.1
2017-Nov-20 15:00N 53°18' W 060°24'0 0.0 150 / 8985.6 5.8 4.9
2017-Nov-20 14:00N 53°18' W 060°24'0 0.0 090 / 4985.4 4.7 4.4
2017-Nov-20 13:00N 53°18' W 060°24'0 0.0 070 / 10986.0 4.5 4.1
2017-Nov-20 12:00N 53°18' W 060°24'0 0.0 070 / 11986.6 3.9 3.7
2017-Nov-20 11:00N 53°18' W 060°24'0 0.0 070 / 9986.7 2.5 2.3
2017-Nov-20 10:00N 53°18' W 060°24'0 0.0 070 / 9987.7 2.7 2.6
2017-Nov-20 09:00N 53°18' W 060°24'0 0.0 060 / 10988.9 2.6 2.5
2017-Nov-20 08:00N 53°18' W 060°24'0 0.0 080 / 6990.0 2.1 1.9
2017-Nov-20 07:00N 53°18' W 060°24'0 0.0 070 / 8990.9 2.0 1.9
2017-Nov-20 06:00N 53°18' W 060°24'0 0.0 060 / 13991.2 1.8 1.7
2017-Nov-20 05:00N 53°18' W 060°24'0 0.0 070 / 16992.9 1.5 1.3
2017-Nov-20 04:00N 53°18' W 060°24'0 0.0 080 / 10994.7 1.0 0.9
2017-Nov-20 03:00N 53°18' W 060°24'0 0.0 070 / 7996.6 0.4 0.3
2017-Nov-20 02:00N 53°18' W 060°24'0 0.0 070 / 7998.4 0.3 0.2
2017-Nov-20 01:00N 53°18' W 060°24'0 0.0 080 / 4999.3 -0.0-0.1
2017-Nov-20 00:00N 53°18' W 060°24'0 0.0 080 / 5999.8 0.1-0.0
2017-Nov-19 23:00N 53°18' W 060°24'0 0.0 130 / 31001.0 0.6 0.5
2017-Nov-19 22:00N 53°18' W 060°24'0 0.0 080 / 51001.8 0.9 0.8
2017-Nov-19 21:00N 53°18' W 060°24'0 0.0 090 / 21003.0 1.4 1.3
2017-Nov-19 20:00N 53°18' W 060°24'0 0.0 090 / 21003.1 1.6 1.5
2017-Nov-19 19:00N 53°18' W 060°24'0 0.0 080 / 61002.7 1.9 1.7
2017-Nov-19 18:00N 53°18' W 060°24'7 7.0 070 / 31003.5 2.0 1.8
2017-Nov-19 17:00N 53°24' W 060°18'1110.7 070 / 51004.4 1.6 1.4
2017-Nov-19 16:00N 53°24' W 060°00'0 0.0 030 / 41005.3 1.1 1.0
2017-Nov-19 15:00N 53°24' W 060°00'4 3.6 350 / 51006.6 1.4 1.3
2017-Nov-19 14:00N 53°24' W 060°06'4 3.6 350 / 51006.2 1.8 1.7
2017-Nov-19 13:00N 53°24' W 060°12'0 0.0 030 / 81005.7 1.6 1.4
2017-Nov-19 12:00N 53°24' W 060°12'0 0.0 020 / 51005.8 1.3 1.2
2017-Nov-19 11:00N 53°24' W 060°12'0 0.0 020 / 51005.8 1.3 1.2
2017-Nov-19 10:00N 53°24' W 060°12'0 0.0 030 / 81005.8 1.4 1.3
2017-Nov-19 09:00N 53°24' W 060°12'0 0.0 010 / 81005.5 1.4 1.3
2017-Nov-19 08:00N 53°24' W 060°12'0 0.0 030 / 91005.2 1.0 0.9
2017-Nov-19 07:00N 53°24' W 060°12'0 0.0 010 / 81006.0 1.2 1.1
2017-Nov-19 06:00N 53°24' W 060°12'0 0.0 350 / 71006.3 1.1 1.0
2017-Nov-19 05:00N 53°24' W 060°12'0 0.0 340 / 81005.8 1.0 0.9
2017-Nov-19 04:00N 53°24' W 060°12'0 0.0 350 / 71005.3 0.7 0.6
2017-Nov-19 03:00N 53°24' W 060°12'0 0.0 340 / 71005.5 0.4 0.3
2017-Nov-19 02:00N 53°24' W 060°12'0 0.0 360 / 81005.4 0.8 0.7
2017-Nov-19 01:00N 53°24' W 060°12'0 0.0 020 / 91005.4 0.6 0.6
2017-Nov-19 00:00N 53°24' W 060°12'0 0.0 030 / 121005.5 0.5 0.4
2017-Nov-18 23:00N 53°24' W 060°12'0 0.0 020 / 121005.7 0.5 0.4
2017-Nov-18 22:00N 53°24' W 060°12'0 0.0 020 / 101005.9 0.3 0.2
2017-Nov-18 21:00N 53°24' W 060°12'7 7.2 010 / 91006.0 0.4 0.3
2017-Nov-18 20:00N 53°24' W 060°00'0 0.0 020 / 171005.5 1.0 0.9
2017-Nov-18 19:00N 53°24' W 060°00'0 0.0 030 / 211004.9 0.6 0.5
2017-Nov-18 18:00N 53°24' W 060°00'0 0.0 030 / 181005.5 0.4 0.3
2017-Nov-18 17:00N 53°24' W 060°00'0 0.0 030 / 181006.0 0.3 0.2
2017-Nov-18 16:00N 53°24' W 060°00'0 0.0 010 / 171006.3 -0.0-0.1
2017-Nov-18 15:00N 53°24' W 060°00'4 3.6 360 / 161007.3 -0.2-0.3
2017-Nov-18 14:00N 53°24' W 060°06'7 7.2 010 / 171007.5 0.3 0.2
2017-Nov-18 13:00N 53°24' W 060°18'7 3.5 020 / 131008.0 -0.0-0.1
2017-Nov-18 11:00N 53°18' W 060°24'0 0.0 030 / 111007.3 -0.0-0.1
2017-Nov-18 10:00N 53°18' W 060°24'0 0.0 040 / 151007.5 -0.0-0.1
2017-Nov-18 09:00N 53°18' W 060°24'0 0.0 050 / 151007.6 -0.0-0.1
2017-Nov-18 08:00N 53°18' W 060°24'0 0.0 040 / 131007.0 -0.1-0.2
2017-Nov-18 07:00N 53°18' W 060°24'0 0.0 040 / 131007.4 -0.3-0.4
2017-Nov-18 06:00N 53°18' W 060°24'0 0.0 050 / 161007.5 -0.5-0.6
2017-Nov-18 05:00N 53°18' W 060°24'0 0.0 050 / 131007.9 -0.7-0.8
2017-Nov-18 04:00N 53°18' W 060°24'0 0.0 050 / 141008.4 -0.9-1.0
2017-Nov-18 03:00N 53°18' W 060°24'0 0.0 040 / 121009.1 -1.5-1.7
2017-Nov-18 02:00N 53°18' W 060°24'0 0.0 050 / 151009.9 -1.3-1.5
2017-Nov-18 01:00N 53°18' W 060°24'0 0.0 060 / 131010.3 -0.7-1.1
2017-Nov-18 00:00N 53°18' W 060°24'0 0.0 070 / 151011.0 -0.7-1.0
2017-Nov-17 23:00N 53°18' W 060°24'0 0.0 050 / 111011.1 -0.9-1.1
2017-Nov-17 22:00N 53°18' W 060°24'0 0.0 070 / 111010.1 -1.1-1.3
2017-Nov-17 21:00N 53°18' W 060°24'7 7.0 040 / 111010.6 -1.3-1.5
2017-Nov-17 20:00N 53°24' W 060°18'1414.3 050 / 171011.2 -0.9-1.1
2017-Nov-17 19:00N 53°24' W 059°54'1312.5 030 / 141011.3 -1.1-1.2
2017-Nov-17 18:00N 53°36' W 059°48'1212.2 050 / 141012.2 -0.6-0.8
2017-Nov-17 17:00N 53°42' W 059°30'1212.2 070 / 121012.7 -1.3-1.9
2017-Nov-17 16:00N 53°48' W 059°12'1212.2 040 / 141013.1 -0.6-2.7
2017-Nov-17 15:00N 53°54' W 058°54'1616.0 060 / 101013.7 -1.5-3.8
2017-Nov-17 14:00N 54°06' W 058°36'1212.1 030 / 41014.5 -2.5-4.8
2017-Nov-17 13:00N 54°12' W 058°18'1515.3 020 / 71014.0 -3.2-4.1
2017-Nov-17 12:00N 54°18' W 057°54'1414.0 170 / 81014.6 -2.6-3.9
2017-Nov-17 11:00N 54°18' W 057°30'1212.1 190 / 101013.9 -1.7-3.9
2017-Nov-17 10:00N 54°24' W 057°12'1615.9 210 / 51014.4 -1.3-3.8
2017-Nov-17 09:00N 54°36' W 056°54'1212.0 260 / 131014.0 -1.4-4.0
2017-Nov-17 08:00N 54°42' W 057°12'1615.9 230 / 141013.7 -1.1-3.9
2017-Nov-17 07:00N 54°54' W 057°30'1615.8 200 / 151013.1 -0.3-2.6
2017-Nov-17 06:00N 55°06' W 057°48'1211.9 200 / 131012.9 -0.1-2.7
2017-Nov-17 05:00N 55°12' W 058°06'1413.8 190 / 111012.9 0.1-2.4
2017-Nov-17 04:00N 55°24' W 058°18'3115.7 210 / 41013.4 0.5-1.1
2017-Nov-17 02:00N 55°48' W 058°54'1211.8 200 / 41013.9 -0.0-1.0
2017-Nov-17 01:00N 55°54' W 059°12'1615.7 190 / 61014.0 -0.1-0.7
2017-Nov-17 00:00N 56°06' W 059°30'1514.7 100 / 111014.7 -0.8-1.0
2017-Nov-16 23:00N 56°12' W 059°54'1514.6 060 / 181015.1 -2.4-2.6
2017-Nov-16 22:00N 56°18' W 060°18'1313.3 070 / 181015.4 -2.9-3.2
2017-Nov-16 21:00N 56°18' W 060°42'1514.6 060 / 161016.1 -3.7-4.3
2017-Nov-16 20:00N 56°24' W 061°06'0 0.0 060 / 121017.2 -4.3-5.5
2017-Nov-16 19:00N 56°24' W 061°06'1211.6 070 / 111017.0 -4.6-5.8
2017-Nov-16 18:00N 56°30' W 061°24'10 9.9 350 / 41017.6 -5.6-8.1
2017-Nov-16 17:00N 56°30' W 061°42'0 0.0 360 / 51017.8 -5.0-9.0
2017-Nov-16 16:00N 56°30' W 061°42'7 6.9 340 / 21018.3 -5.2-10.5
2017-Nov-16 15:00N 56°36' W 061°36'3 3.3 330 / 61018.9 -5.1-10.6
2017-Nov-16 14:00N 56°36' W 061°30'9 8.9 080 / 21018.7 -5.1-10.0
2017-Nov-16 13:00N 56°30' W 061°18'1313.2 310 / 51018.1 -4.9-9.7
2017-Nov-16 12:00N 56°30' W 060°54'3 3.3 320 / 81017.9 -4.0-10.9
2017-Nov-16 11:00N 56°30' W 060°48'10 9.9 300 / 81017.9 -3.9-11.1
2017-Nov-16 10:00N 56°30' W 060°30'7 6.6 300 / 41017.0 -3.4-8.5
2017-Nov-16 09:00N 56°30' W 060°18'0 0.0 290 / 141017.0 -2.9-8.0
2017-Nov-16 08:00N 56°30' W 060°18'3 3.3 280 / 171016.8 -3.1-7.2
2017-Nov-16 07:00N 56°30' W 060°24'0 0.0 280 / 151016.9 -3.3-7.2
2017-Nov-16 06:00N 56°30' W 060°24'0 0.0 280 / 171016.2 -3.1-7.3
2017-Nov-16 05:00N 56°30' W 060°24'6 6.0 280 / 161016.2 -3.0-8.4
2017-Nov-16 04:00N 56°36' W 060°24'1211.6 260 / 171015.1 -3.3-8.1
2017-Nov-16 03:00N 56°30' W 060°06'1413.7 280 / 151015.0 -3.2-8.1
2017-Nov-16 02:00N 56°18' W 059°54'1413.7 260 / 221014.6 -2.7-8.4
2017-Nov-16 01:00N 56°06' W 059°42'1413.7 260 / 271014.6 -2.1-8.7
2017-Nov-16 00:00N 55°54' W 059°30'7 6.9 270 / 241014.6 -1.2-8.1
2017-Nov-15 23:00N 55°48' W 059°24'1212.5 270 / 261014.8 -0.7-6.3
2017-Nov-15 22:00N 55°36' W 059°30'1615.7 290 / 171015.2 -0.2-4.8
2017-Nov-15 21:00N 55°24' W 059°48'1514.9 240 / 181014.9 1.1-2.3
2017-Nov-15 20:00N 55°30' W 060°12'0 0.0 230 / 71014.1 1.2-3.6
2017-Nov-15 19:00N 55°30' W 060°12'0 0.0 220 / 51013.5 1.2-3.4
2017-Nov-15 18:00N 55°30' W 060°12'0 0.0 230 / 111013.3 2.1-4.1
2017-Nov-15 17:00N 55°30' W 060°12'9 4.5 260 / 131012.6 1.7-4.3
2017-Nov-15 15:00N 55°24' W 060°00'0 0.0 220 / 141013.1 -0.5-4.5
2017-Nov-15 14:00N 55°24' W 060°00'7 6.8 220 / 101012.5 -1.2-4.9
2017-Nov-15 13:00N 55°24' W 059°48'9 9.1 220 / 321012.6 -2.0-5.7
2017-Nov-15 12:00N 55°18' W 059°36'9 9.1 210 / 281013.1 -2.1-6.0
2017-Nov-15 11:00N 55°12' W 059°24'7 6.9 210 / 281014.6 -3.4-7.8
2017-Nov-15 10:00N 55°06' W 059°30'0 0.0 220 / 251014.3 -3.4-8.1
2017-Nov-15 09:00N 55°06' W 059°30'0 0.0 220 / 251014.7 -4.1-8.6
2017-Nov-15 08:00N 55°06' W 059°30'0 0.0 230 / 191015.9 -4.4-9.5
2017-Nov-15 07:00N 55°06' W 059°30'0 0.0 230 / 201015.9 -3.8-9.6
2017-Nov-15 06:00N 55°06' W 059°30'0 0.0 210 / 271016.2 -3.5-10.2
2017-Nov-15 04:00N 55°06' W 059°30'0 0.0 210 / 231018.1 -4.2-10.1
2017-Nov-15 03:00N 55°06' W 059°30'0 0.0 220 / 231019.0 -4.3-10.1
2017-Nov-15 02:00N 55°06' W 059°30'0 0.0 210 / 221020.4 -4.2-9.5
2017-Nov-15 01:00N 55°06' W 059°30'0 0.0 220 / 191022.1 -4.0-9.4
2017-Nov-15 00:00N 55°06' W 059°30'0 0.0 230 / 141023.1 -4.6-9.8
2017-Nov-14 23:00N 55°06' W 059°30'0 0.0 210 / 141024.1 -4.2-9.5
2017-Nov-14 22:00N 55°06' W 059°30'0 0.0 240 / 91025.0 -4.8-11.5
2017-Nov-14 21:00N 55°06' W 059°30'0 0.0 250 / 121025.1 -4.5-11.5
2017-Nov-14 20:00N 55°06' W 059°30'1413.8 230 / 121025.3 -3.5-11.8
2017-Nov-14 19:00N 54°54' W 059°42'0 0.0 230 / 131025.8 -2.6-10.6
2017-Nov-14 18:00N 54°54' W 059°42'1615.8 280 / 91025.2 -2.9-12.2
2017-Nov-14 17:00N 55°06' W 059°24'9 9.1 290 / 201024.8 -3.6-11.0
2017-Nov-14 16:00N 55°12' W 059°12'3 3.4 290 / 171024.0 -3.9-10.3
2017-Nov-14 15:00N 55°12' W 059°06'9 9.1 270 / 261023.8 -4.3-10.2
2017-Nov-14 14:00N 55°06' W 058°54'3 3.4 280 / 171024.1 -4.2-9.9
2017-Nov-14 13:00N 55°06' W 058°48'1615.8 250 / 231023.2 -4.9-9.3
2017-Nov-14 12:00N 54°54' W 058°30'1413.8 260 / 211022.6 -4.6-7.9
2017-Nov-14 11:00N 54°54' W 058°06'2412.1 300 / 221020.8 -3.9-7.1
2017-Nov-14 09:00N 54°54' W 057°24'1717.3 290 / 161019.3 -3.0-6.1
2017-Nov-14 08:00N 54°54' W 056°54'1212.0 290 / 121018.5 -2.4-6.0
2017-Nov-14 07:00N 54°48' W 056°36'1212.5 280 / 211018.3 -2.4-5.4
2017-Nov-14 06:00N 54°36' W 056°30'1413.9 290 / 211018.0 -2.0-5.3
2017-Nov-14 05:00N 54°24' W 056°18'1413.9 290 / 171018.2 -1.9-5.4
2017-Nov-14 04:00N 54°12' W 056°06'1413.9 270 / 181018.1 -1.4-3.9
2017-Nov-14 03:00N 54°00' W 055°54'1312.5 240 / 211018.7 -1.7-4.6
2017-Nov-14 02:00N 53°48' W 055°48'1413.9 240 / 221019.2 -2.1-5.5
2017-Nov-14 01:00N 53°36' W 055°36'2512.5 240 / 241019.8 -2.2-6.4
2017-Nov-13 23:00N 53°12' W 055°24'   250 / 261020.4 -1.2-5.9
Track history (hours):
 
Tides and Currents Weather Stations Pressure Air Temp Water Temp Dewpoint Dewpoint Depression Visibility Wind Speed Wind Dir Waves Ship Positions

Edward Cornwallis

Last reported at 2017-Nov-23 23:00 UTC. Time now 2017-Nov-24 00:18 UTC.
Position N 53°18' W 060°24'.

Length 83 m; draft 6 m.

Type: SAR. MMSI: 316020000.

Wind from 310 at 7 knots

Barometer 994.9 mb
Air temperature -2.1 ° C
Dewpoint -2.4 ° C

Date/timePositionNaut miles runAvg speedWind from/ knotsBaromVisibWave heightAir tempDewpointWater temp
2017-Nov-23 23:00N 53°18' W 060°24'0 0.0 310 / 7994.9 -2.1-2.4
2017-Nov-23 22:00N 53°18' W 060°24'0 0.0
2017-Nov-23 21:00N 53°18' W 060°24'0 0.0 330 / 9994.8 -0.7-0.9
2017-Nov-23 20:00N 53°18' W 060°24'0 0.0 350 / 10995.3 -0.3-0.5
2017-Nov-23 19:00N 53°18' W 060°24'0 0.0 340 / 6995.5 -0.0-0.1
2017-Nov-23 18:00N 53°18' W 060°24'0 0.0 030 / 7995.9 -0.0-0.1
2017-Nov-23 17:00N 53°18' W 060°24'0 0.0 050 / 8996.8 -0.0-0.2
2017-Nov-23 16:00N 53°18' W 060°24'0 0.0 070 / 7998.4 -0.1-0.3
2017-Nov-23 15:00N 53°18' W 060°24'0 0.0 060 / 81000.3 -0.4-0.5
2017-Nov-23 14:00N 53°18' W 060°24'0 0.0 060 / 71001.7 -0.5-0.6
2017-Nov-23 13:00N 53°18' W 060°24'0 0.0 040 / 91003.4 -0.7-0.8
2017-Nov-23 12:00N 53°18' W 060°24'0 0.0 050 / 81004.1 -0.8-0.9
2017-Nov-23 11:00N 53°18' W 060°24'7 7.0 050 / 91005.1 -0.7-0.9
2017-Nov-23 10:00N 53°24' W 060°18'0 0.0 040 / 111005.9 -0.7-0.8
2017-Nov-23 09:00N 53°24' W 060°18'0 0.0 030 / 61007.5 -0.8-0.9
2017-Nov-23 08:00N 53°24' W 060°18'0 0.0 020 / 41008.5 -1.1-1.2
2017-Nov-23 07:00N 53°24' W 060°18'0 0.0 010 / 41009.8 -1.3-1.4
2017-Nov-23 06:00N 53°24' W 060°18'0 0.0 050 / 61010.9 -1.1-1.2
2017-Nov-23 05:00N 53°24' W 060°18'0 0.0 030 / 31011.7 -1.4-1.5
2017-Nov-23 04:00N 53°24' W 060°18'0 0.0 030 / 31012.9 -1.6-1.8
2017-Nov-23 03:00N 53°24' W 060°18'0 0.0 040 / 21013.5 -1.9-2.0
2017-Nov-23 02:00N 53°24' W 060°18'0 0.0 010 / 31014.3 -2.1-2.2
2017-Nov-23 01:00N 53°24' W 060°18'0 0.0 060 / 31015.4 -2.1-2.7
2017-Nov-23 00:00N 53°24' W 060°18'0 0.0 340 / 31015.8 -2.4-3.6
2017-Nov-22 23:00N 53°24' W 060°18'0 0.0 030 / 31015.9 -2.5-4.3
2017-Nov-22 22:00N 53°24' W 060°18'0 0.0 030 / 31016.1 -2.7-4.8
2017-Nov-22 21:00N 53°24' W 060°18'0 0.0 010 / 31016.3 -3.0-5.0
2017-Nov-22 20:00N 53°24' W 060°18'0 0.0 280 / 11016.2 -2.9-5.2
2017-Nov-22 19:00N 53°24' W 060°18'0 0.0 240 / 31016.9 -3.0-5.8
2017-Nov-22 18:00N 53°24' W 060°18'0 0.0 240 / 41016.6 -3.8-6.6
2017-Nov-22 17:00N 53°24' W 060°18'0 0.0 270 / 21017.0 -4.4-7.6
2017-Nov-22 16:00N 53°24' W 060°18'0 0.0 270 / 31017.4 -5.1-8.1
2017-Nov-22 15:00N 53°24' W 060°18'0 0.0 220 / 51017.7 -5.6-8.7
2017-Nov-22 14:00N 53°24' W 060°18'0 0.0 270 / 31017.5 -7.2-9.6
2017-Nov-22 13:00N 53°24' W 060°18'0 0.0 300 / 31017.4 -7.7-9.3
2017-Nov-22 12:00N 53°24' W 060°18'0 0.0 250 / 41017.3 -9.5-10.3
2017-Nov-22 11:00N 53°24' W 060°18'0 0.0 020 / 21017.0 -8.7-9.5
2017-Nov-22 10:00N 53°24' W 060°18'0 0.0 230 / 31016.8 -9.7-11.2
2017-Nov-22 09:00N 53°24' W 060°18'0 0.0 180 / 51016.6 -9.6-11.8
2017-Nov-22 08:00N 53°24' W 060°18'0 0.0 200 / 61016.8 -10.0-11.3
2017-Nov-22 07:00N 53°24' W 060°18'0 0.0 180 / 81017.0 -10.3-11.4
2017-Nov-22 06:00N 53°24' W 060°18'0 0.0 190 / 81016.8 -9.2-11.0
2017-Nov-22 05:00N 53°24' W 060°18'0 0.0 170 / 61016.2 -8.8-10.1
2017-Nov-22 04:00N 53°24' W 060°18'0 0.0 220 / 61015.7 -7.9-9.7
2017-Nov-22 03:00N 53°24' W 060°18'0 0.0 230 / 71015.2 -7.4-10.0
2017-Nov-22 02:00N 53°24' W 060°18'0 0.0 260 / 71014.6 -6.8-10.2
2017-Nov-22 01:00N 53°24' W 060°18'0 0.0 250 / 121014.2 -5.9-9.5
2017-Nov-22 00:00N 53°24' W 060°18'0 0.0 230 / 91013.1 -5.6-9.1
2017-Nov-21 23:00N 53°24' W 060°18'0 0.0 230 / 121012.2 -5.4-9.1
2017-Nov-21 22:00N 53°24' W 060°18'0 0.0 240 / 121011.3 -5.1-8.6
2017-Nov-21 21:00N 53°24' W 060°18'0 0.0 230 / 131009.5 -4.6-8.3
2017-Nov-21 20:00N 53°24' W 060°18'0 0.0 240 / 101008.0 -3.8-7.9
2017-Nov-21 19:00N 53°24' W 060°18'0 0.0 260 / 121005.8 -3.0-8.0
2017-Nov-21 18:00N 53°24' W 060°18'0 0.0 260 / 151004.1 -2.9-7.8
2017-Nov-21 17:00N 53°24' W 060°18'0 0.0 250 / 131002.3 -3.1-6.9
2017-Nov-21 16:00N 53°24' W 060°18'0 0.0 240 / 171000.1 -3.5-7.0
2017-Nov-21 15:00N 53°24' W 060°18'0 0.0 250 / 18998.2 -3.5-5.9
2017-Nov-21 14:00N 53°24' W 060°18'0 0.0 240 / 16996.2 -2.7-5.4
2017-Nov-21 13:00N 53°24' W 060°18'0 0.0 240 / 19993.8 -2.5-4.7
2017-Nov-21 12:00N 53°24' W 060°18'7 7.2 230 / 16991.6 -1.8-4.1
2017-Nov-21 11:00N 53°24' W 060°06'0 0.0 230 / 21990.4 -1.5-3.1
2017-Nov-21 10:00N 53°24' W 060°06'0 0.0 230 / 18989.6 -1.1-2.2
2017-Nov-21 09:00N 53°24' W 060°06'0 0.0 230 / 17988.4 -1.0-2.0
2017-Nov-21 08:00N 53°24' W 060°06'0 0.0 230 / 18987.7 -0.9-1.1
2017-Nov-21 07:00N 53°24' W 060°06'0 0.0 230 / 17987.0 -0.4-0.5
2017-Nov-21 06:00N 53°24' W 060°06'0 0.0 220 / 14986.5 0.3 0.1
2017-Nov-21 05:00N 53°24' W 060°06'0 0.0 200 / 12986.1 0.7 0.5
2017-Nov-21 04:00N 53°24' W 060°06'0 0.0 210 / 11986.3 1.3 0.9
2017-Nov-21 03:00N 53°24' W 060°06'0 0.0 210 / 11986.6 2.6 1.1
2017-Nov-21 01:00N 53°24' W 060°06'0 0.0 210 / 9987.1 2.9 1.2
2017-Nov-21 00:00N 53°24' W 060°06'4 3.6 200 / 7987.4 2.9 1.4
2017-Nov-20 23:00N 53°24' W 060°12'9 9.3 190 / 14986.9 3.4 1.8
2017-Nov-20 22:00N 53°18' W 060°24'0 0.0 180 / 9987.4 3.0 2.0
2017-Nov-20 21:00N 53°18' W 060°24'0 0.0 170 / 5986.8 3.7 2.2
2017-Nov-20 20:00N 53°18' W 060°24'0 0.0 180 / 7986.3 4.5 3.5
2017-Nov-20 19:00N 53°18' W 060°24'0 0.0 180 / 6985.6 5.8 4.3
2017-Nov-20 18:00N 53°18' W 060°24'0 0.0 150 / 6985.0 5.9 5.4
2017-Nov-20 17:00N 53°18' W 060°24'0 0.0 140 / 8984.9 6.4 5.0
2017-Nov-20 16:00N 53°18' W 060°24'0 0.0 150 / 10985.1 6.0 5.1
2017-Nov-20 15:00N 53°18' W 060°24'0 0.0 150 / 8985.6 5.8 4.9
2017-Nov-20 14:00N 53°18' W 060°24'0 0.0 090 / 4985.4 4.7 4.4
2017-Nov-20 13:00N 53°18' W 060°24'0 0.0 070 / 10986.0 4.5 4.1
2017-Nov-20 12:00N 53°18' W 060°24'0 0.0 070 / 11986.6 3.9 3.7
2017-Nov-20 11:00N 53°18' W 060°24'0 0.0 070 / 9986.7 2.5 2.3
2017-Nov-20 10:00N 53°18' W 060°24'0 0.0 070 / 9987.7 2.7 2.6
2017-Nov-20 09:00N 53°18' W 060°24'0 0.0 060 / 10988.9 2.6 2.5
2017-Nov-20 08:00N 53°18' W 060°24'0 0.0 080 / 6990.0 2.1 1.9
2017-Nov-20 07:00N 53°18' W 060°24'0 0.0 070 / 8990.9 2.0 1.9
2017-Nov-20 06:00N 53°18' W 060°24'0 0.0 060 / 13991.2 1.8 1.7
2017-Nov-20 05:00N 53°18' W 060°24'0 0.0 070 / 16992.9 1.5 1.3
2017-Nov-20 04:00N 53°18' W 060°24'0 0.0 080 / 10994.7 1.0 0.9
2017-Nov-20 03:00N 53°18' W 060°24'0 0.0 070 / 7996.6 0.4 0.3
2017-Nov-20 02:00N 53°18' W 060°24'0 0.0 070 / 7998.4 0.3 0.2
2017-Nov-20 01:00N 53°18' W 060°24'0 0.0 080 / 4999.3 -0.0-0.1
2017-Nov-20 00:00N 53°18' W 060°24'0 0.0 080 / 5999.8 0.1-0.0
2017-Nov-19 23:00N 53°18' W 060°24'0 0.0 130 / 31001.0 0.6 0.5
2017-Nov-19 22:00N 53°18' W 060°24'0 0.0 080 / 51001.8 0.9 0.8
2017-Nov-19 21:00N 53°18' W 060°24'0 0.0 090 / 21003.0 1.4 1.3
2017-Nov-19 20:00N 53°18' W 060°24'0 0.0 090 / 21003.1 1.6 1.5
2017-Nov-19 19:00N 53°18' W 060°24'0 0.0 080 / 61002.7 1.9 1.7
2017-Nov-19 18:00N 53°18' W 060°24'7 7.0 070 / 31003.5 2.0 1.8
2017-Nov-19 17:00N 53°24' W 060°18'1110.7 070 / 51004.4 1.6 1.4
2017-Nov-19 16:00N 53°24' W 060°00'0 0.0 030 / 41005.3 1.1 1.0
2017-Nov-19 15:00N 53°24' W 060°00'4 3.6 350 / 51006.6 1.4 1.3
2017-Nov-19 14:00N 53°24' W 060°06'4 3.6 350 / 51006.2 1.8 1.7
2017-Nov-19 13:00N 53°24' W 060°12'0 0.0 030 / 81005.7 1.6 1.4
2017-Nov-19 12:00N 53°24' W 060°12'0 0.0 020 / 51005.8 1.3 1.2
2017-Nov-19 11:00N 53°24' W 060°12'0 0.0 020 / 51005.8 1.3 1.2
2017-Nov-19 10:00N 53°24' W 060°12'0 0.0 030 / 81005.8 1.4 1.3
2017-Nov-19 09:00N 53°24' W 060°12'0 0.0 010 / 81005.5 1.4 1.3
2017-Nov-19 08:00N 53°24' W 060°12'0 0.0 030 / 91005.2 1.0 0.9
2017-Nov-19 07:00N 53°24' W 060°12'0 0.0 010 / 81006.0 1.2 1.1
2017-Nov-19 06:00N 53°24' W 060°12'0 0.0 350 / 71006.3 1.1 1.0
2017-Nov-19 05:00N 53°24' W 060°12'0 0.0 340 / 81005.8 1.0 0.9
2017-Nov-19 04:00N 53°24' W 060°12'0 0.0 350 / 71005.3 0.7 0.6
2017-Nov-19 03:00N 53°24' W 060°12'0 0.0 340 / 71005.5 0.4 0.3
2017-Nov-19 02:00N 53°24' W 060°12'0 0.0 360 / 81005.4 0.8 0.7
2017-Nov-19 01:00N 53°24' W 060°12'0 0.0 020 / 91005.4 0.6 0.6
2017-Nov-19 00:00N 53°24' W 060°12'0 0.0 030 / 121005.5 0.5 0.4
2017-Nov-18 23:00N 53°24' W 060°12'0 0.0 020 / 121005.7 0.5 0.4
2017-Nov-18 22:00N 53°24' W 060°12'0 0.0 020 / 101005.9 0.3 0.2
2017-Nov-18 21:00N 53°24' W 060°12'7 7.2 010 / 91006.0 0.4 0.3
2017-Nov-18 20:00N 53°24' W 060°00'0 0.0 020 / 171005.5 1.0 0.9
2017-Nov-18 19:00N 53°24' W 060°00'0 0.0 030 / 211004.9 0.6 0.5
2017-Nov-18 18:00N 53°24' W 060°00'0 0.0 030 / 181005.5 0.4 0.3
2017-Nov-18 17:00N 53°24' W 060°00'0 0.0 030 / 181006.0 0.3 0.2
2017-Nov-18 16:00N 53°24' W 060°00'0 0.0 010 / 171006.3 -0.0-0.1
2017-Nov-18 15:00N 53°24' W 060°00'4 3.6 360 / 161007.3 -0.2-0.3
2017-Nov-18 14:00N 53°24' W 060°06'7 7.2 010 / 171007.5 0.3 0.2
2017-Nov-18 13:00N 53°24' W 060°18'7 3.5 020 / 131008.0 -0.0-0.1
2017-Nov-18 11:00N 53°18' W 060°24'0 0.0 030 / 111007.3 -0.0-0.1
2017-Nov-18 10:00N 53°18' W 060°24'0 0.0 040 / 151007.5 -0.0-0.1
2017-Nov-18 09:00N 53°18' W 060°24'0 0.0 050 / 151007.6 -0.0-0.1
2017-Nov-18 08:00N 53°18' W 060°24'0 0.0 040 / 131007.0 -0.1-0.2
2017-Nov-18 07:00N 53°18' W 060°24'0 0.0 040 / 131007.4 -0.3-0.4
2017-Nov-18 06:00N 53°18' W 060°24'0 0.0 050 / 161007.5 -0.5-0.6
2017-Nov-18 05:00N 53°18' W 060°24'0 0.0 050 / 131007.9 -0.7-0.8
2017-Nov-18 04:00N 53°18' W 060°24'0 0.0 050 / 141008.4 -0.9-1.0
2017-Nov-18 03:00N 53°18' W 060°24'0 0.0 040 / 121009.1 -1.5-1.7
2017-Nov-18 02:00N 53°18' W 060°24'0 0.0 050 / 151009.9 -1.3-1.5
2017-Nov-18 01:00N 53°18' W 060°24'0 0.0 060 / 131010.3 -0.7-1.1
2017-Nov-18 00:00N 53°18' W 060°24'0 0.0 070 / 151011.0 -0.7-1.0
2017-Nov-17 23:00N 53°18' W 060°24'0 0.0 050 / 111011.1 -0.9-1.1
2017-Nov-17 22:00N 53°18' W 060°24'0 0.0 070 / 111010.1 -1.1-1.3
2017-Nov-17 21:00N 53°18' W 060°24'7 7.0 040 / 111010.6 -1.3-1.5
2017-Nov-17 20:00N 53°24' W 060°18'1414.3 050 / 171011.2 -0.9-1.1
2017-Nov-17 19:00N 53°24' W 059°54'1312.5 030 / 141011.3 -1.1-1.2
2017-Nov-17 18:00N 53°36' W 059°48'1212.2 050 / 141012.2 -0.6-0.8
2017-Nov-17 17:00N 53°42' W 059°30'1212.2 070 / 121012.7 -1.3-1.9
2017-Nov-17 16:00N 53°48' W 059°12'1212.2 040 / 141013.1 -0.6-2.7
2017-Nov-17 15:00N 53°54' W 058°54'1616.0 060 / 101013.7 -1.5-3.8
2017-Nov-17 14:00N 54°06' W 058°36'1212.1 030 / 41014.5 -2.5-4.8
2017-Nov-17 13:00N 54°12' W 058°18'1515.3 020 / 71014.0 -3.2-4.1
2017-Nov-17 12:00N 54°18' W 057°54'1414.0 170 / 81014.6 -2.6-3.9
2017-Nov-17 11:00N 54°18' W 057°30'1212.1 190 / 101013.9 -1.7-3.9
2017-Nov-17 10:00N 54°24' W 057°12'1615.9 210 / 51014.4 -1.3-3.8
2017-Nov-17 09:00N 54°36' W 056°54'1212.0 260 / 131014.0 -1.4-4.0
2017-Nov-17 08:00N 54°42' W 057°12'1615.9 230 / 141013.7 -1.1-3.9
2017-Nov-17 07:00N 54°54' W 057°30'1615.8 200 / 151013.1 -0.3-2.6
2017-Nov-17 06:00N 55°06' W 057°48'1211.9 200 / 131012.9 -0.1-2.7
2017-Nov-17 05:00N 55°12' W 058°06'1413.8 190 / 111012.9 0.1-2.4
2017-Nov-17 04:00N 55°24' W 058°18'3115.7 210 / 41013.4 0.5-1.1
2017-Nov-17 02:00N 55°48' W 058°54'1211.8 200 / 41013.9 -0.0-1.0
2017-Nov-17 01:00N 55°54' W 059°12'1615.7 190 / 61014.0 -0.1-0.7
2017-Nov-17 00:00N 56°06' W 059°30'1514.7 100 / 111014.7 -0.8-1.0
2017-Nov-16 23:00N 56°12' W 059°54'1514.6 060 / 181015.1 -2.4-2.6
2017-Nov-16 22:00N 56°18' W 060°18'1313.3 070 / 181015.4 -2.9-3.2
2017-Nov-16 21:00N 56°18' W 060°42'1514.6 060 / 161016.1 -3.7-4.3
2017-Nov-16 20:00N 56°24' W 061°06'0 0.0 060 / 121017.2 -4.3-5.5
2017-Nov-16 19:00N 56°24' W 061°06'1211.6 070 / 111017.0 -4.6-5.8
2017-Nov-16 18:00N 56°30' W 061°24'10 9.9 350 / 41017.6 -5.6-8.1
2017-Nov-16 17:00N 56°30' W 061°42'0 0.0 360 / 51017.8 -5.0-9.0
2017-Nov-16 16:00N 56°30' W 061°42'7 6.9 340 / 21018.3 -5.2-10.5
2017-Nov-16 15:00N 56°36' W 061°36'3 3.3 330 / 61018.9 -5.1-10.6
2017-Nov-16 14:00N 56°36' W 061°30'9 8.9 080 / 21018.7 -5.1-10.0
2017-Nov-16 13:00N 56°30' W 061°18'1313.2 310 / 51018.1 -4.9-9.7
2017-Nov-16 12:00N 56°30' W 060°54'3 3.3 320 / 81017.9 -4.0-10.9
2017-Nov-16 11:00N 56°30' W 060°48'10 9.9 300 / 81017.9 -3.9-11.1
2017-Nov-16 10:00N 56°30' W 060°30'7 6.6 300 / 41017.0 -3.4-8.5
2017-Nov-16 09:00N 56°30' W 060°18'0 0.0 290 / 141017.0 -2.9-8.0
2017-Nov-16 08:00N 56°30' W 060°18'3 3.3 280 / 171016.8 -3.1-7.2
2017-Nov-16 07:00N 56°30' W 060°24'0 0.0 280 / 151016.9 -3.3-7.2
2017-Nov-16 06:00N 56°30' W 060°24'0 0.0 280 / 171016.2 -3.1-7.3
2017-Nov-16 05:00N 56°30' W 060°24'6 6.0 280 / 161016.2 -3.0-8.4
2017-Nov-16 04:00N 56°36' W 060°24'1211.6 260 / 171015.1 -3.3-8.1
2017-Nov-16 03:00N 56°30' W 060°06'1413.7 280 / 151015.0 -3.2-8.1
2017-Nov-16 02:00N 56°18' W 059°54'1413.7 260 / 221014.6 -2.7-8.4
2017-Nov-16 01:00N 56°06' W 059°42'1413.7 260 / 271014.6 -2.1-8.7
2017-Nov-16 00:00N 55°54' W 059°30'7 6.9 270 / 241014.6 -1.2-8.1
2017-Nov-15 23:00N 55°48' W 059°24'1212.5 270 / 261014.8 -0.7-6.3
2017-Nov-15 22:00N 55°36' W 059°30'1615.7 290 / 171015.2 -0.2-4.8
2017-Nov-15 21:00N 55°24' W 059°48'1514.9 240 / 181014.9 1.1-2.3
2017-Nov-15 20:00N 55°30' W 060°12'0 0.0 230 / 71014.1 1.2-3.6
2017-Nov-15 19:00N 55°30' W 060°12'0 0.0 220 / 51013.5 1.2-3.4
2017-Nov-15 18:00N 55°30' W 060°12'0 0.0 230 / 111013.3 2.1-4.1
2017-Nov-15 17:00N 55°30' W 060°12'9 4.5 260 / 131012.6 1.7-4.3
2017-Nov-15 15:00N 55°24' W 060°00'0 0.0 220 / 141013.1 -0.5-4.5
2017-Nov-15 14:00N 55°24' W 060°00'7 6.8 220 / 101012.5 -1.2-4.9
2017-Nov-15 13:00N 55°24' W 059°48'9 9.1 220 / 321012.6 -2.0-5.7
2017-Nov-15 12:00N 55°18' W 059°36'9 9.1 210 / 281013.1 -2.1-6.0
2017-Nov-15 11:00N 55°12' W 059°24'7 6.9 210 / 281014.6 -3.4-7.8
2017-Nov-15 10:00N 55°06' W 059°30'0 0.0 220 / 251014.3 -3.4-8.1
2017-Nov-15 09:00N 55°06' W 059°30'0 0.0 220 / 251014.7 -4.1-8.6
2017-Nov-15 08:00N 55°06' W 059°30'0 0.0 230 / 191015.9 -4.4-9.5
2017-Nov-15 07:00N 55°06' W 059°30'0 0.0 230 / 201015.9 -3.8-9.6
2017-Nov-15 06:00N 55°06' W 059°30'0 0.0 210 / 271016.2 -3.5-10.2
2017-Nov-15 04:00N 55°06' W 059°30'0 0.0 210 / 231018.1 -4.2-10.1
2017-Nov-15 03:00N 55°06' W 059°30'0 0.0 220 / 231019.0 -4.3-10.1
2017-Nov-15 02:00N 55°06' W 059°30'0 0.0 210 / 221020.4 -4.2-9.5
2017-Nov-15 01:00N 55°06' W 059°30'0 0.0 220 / 191022.1 -4.0-9.4
2017-Nov-15 00:00N 55°06' W 059°30'0 0.0 230 / 141023.1 -4.6-9.8
2017-Nov-14 23:00N 55°06' W 059°30'0 0.0 210 / 141024.1 -4.2-9.5
2017-Nov-14 22:00N 55°06' W 059°30'0 0.0 240 / 91025.0 -4.8-11.5
2017-Nov-14 21:00N 55°06' W 059°30'0 0.0 250 / 121025.1 -4.5-11.5
2017-Nov-14 20:00N 55°06' W 059°30'1413.8 230 / 121025.3 -3.5-11.8
2017-Nov-14 19:00N 54°54' W 059°42'0 0.0 230 / 131025.8 -2.6-10.6
2017-Nov-14 18:00N 54°54' W 059°42'1615.8 280 / 91025.2 -2.9-12.2
2017-Nov-14 17:00N 55°06' W 059°24'9 9.1 290 / 201024.8 -3.6-11.0
2017-Nov-14 16:00N 55°12' W 059°12'3 3.4 290 / 171024.0 -3.9-10.3
2017-Nov-14 15:00N 55°12' W 059°06'9 9.1 270 / 261023.8 -4.3-10.2
2017-Nov-14 14:00N 55°06' W 058°54'3 3.4 280 / 171024.1 -4.2-9.9
2017-Nov-14 13:00N 55°06' W 058°48'1615.8 250 / 231023.2 -4.9-9.3
2017-Nov-14 12:00N 54°54' W 058°30'1413.8 260 / 211022.6 -4.6-7.9
2017-Nov-14 11:00N 54°54' W 058°06'2412.1 300 / 221020.8 -3.9-7.1
2017-Nov-14 09:00N 54°54' W 057°24'1717.3 290 / 161019.3 -3.0-6.1
2017-Nov-14 08:00N 54°54' W 056°54'1212.0 290 / 121018.5 -2.4-6.0
2017-Nov-14 07:00N 54°48' W 056°36'1212.5 280 / 211018.3 -2.4-5.4
2017-Nov-14 06:00N 54°36' W 056°30'1413.9 290 / 211018.0 -2.0-5.3
2017-Nov-14 05:00N 54°24' W 056°18'1413.9 290 / 171018.2 -1.9-5.4
2017-Nov-14 04:00N 54°12' W 056°06'1413.9 270 / 181018.1 -1.4-3.9
2017-Nov-14 03:00N 54°00' W 055°54'1312.5 240 / 211018.7 -1.7-4.6
2017-Nov-14 02:00N 53°48' W 055°48'1413.9 240 / 221019.2 -2.1-5.5
2017-Nov-14 01:00N 53°36' W 055°36'2512.5 240 / 241019.8 -2.2-6.4
2017-Nov-13 23:00N 53°12' W 055°24'   250 / 261020.4 -1.2-5.9

Dump ship's entire track history